Terminal Aerodrome Forecast
Issued by NWS

Current Version | Previous Version | Graphics & Text | Print | Product List | Glossary On
Versions: 1 2 3 4 5 6 7 8 9 10 11 12 13 14 15 16 17 18
000
FTUS41 KILN 051700
TAFLCK
TAF
KLCK 051720Z 0518/0618 09004KT P6SM BKN150 OVC250
     FM060100 VRB03KT P6SM SCT030 BKN250
     FM061300 21006KT P6SM SCT040=

USA.gov is the U.S. government's official web portal to all federal, state and local government web resources and services.